Time;durP1;ratioP1;P1;durP2;ratioP2;P2;SDS_P1;SDS_P2;PMS_P1;PMS_P2;Temp;Humidity;BMP_temperature;BMP_pressure;BME280_temperature;BME280_humidity;BME280_pressure;Samples;Min_cycle;Max_cycle;Signal;HPM_P1;HPM_P2
2023/01/22 00:01:46;;;;;;;48.90;22.57;;;;;;;41.88;37.34;100947.34;6041654;23;20467;-84
2023/01/22 00:04:12;;;;;;;42.90;20.17;;;;;;;41.93;36.93;100938.94;6041329;23;20889;-82
2023/01/22 00:06:38;;;;;;;34.27;21.37;;;;;;;42.01;36.64;100940.81;6064474;23;20416;-84
2023/01/22 00:09:04;;;;;;;28.90;20.80;;;;;;;41.96;36.97;100941.81;6040585;23;20394;-82
2023/01/22 00:11:30;;;;;;;37.83;23.20;;;;;;;42.11;36.88;100946.66;6040777;23;20432;-82
2023/01/22 00:13:56;;;;;;;31.07;20.47;;;;;;;42.00;36.50;100940.03;6041441;23;20895;-82
2023/01/22 00:16:22;;;;;;;27.50;18.57;;;;;;;42.01;36.61;100941.59;6042595;23;20470;-83
2023/01/22 00:18:48;;;;;;;33.53;19.70;;;;;;;42.11;36.64;100935.75;6042468;23;20455;-82
2023/01/22 00:21:14;;;;;;;26.77;18.23;;;;;;;42.10;36.06;100934.16;6066955;23;20875;-82
2023/01/22 00:23:40;;;;;;;31.33;20.27;;;;;;;42.04;36.31;100924.56;6067169;23;20394;-82
2023/01/22 00:26:12;;;;;;;32.33;21.57;;;;;;;42.05;36.66;100925.38;6043425;23;20536;-82
2023/01/22 00:28:40;;;;;;;44.27;22.30;;;;;;;41.96;36.84;100927.38;6066830;23;20391;-82
2023/01/22 00:31:08;;;;;;;40.60;22.03;;;;;;;42.10;36.57;100930.63;6067075;23;20835;-81
2023/01/22 00:33:34;;;;;;;36.23;20.17;;;;;;;42.09;37.01;100932.56;6042953;23;20400;-81
2023/01/22 00:36:13;;;;;;;35.57;21.93;;;;;;;42.05;36.38;100928.09;6066572;23;20392;-81
2023/01/22 00:38:39;;;;;;;30.90;20.67;;;;;;;42.02;36.42;100928.78;6056883;23;20363;-84
2023/01/22 00:41:07;;;;;;;36.90;23.60;;;;;;;42.09;36.70;100920.84;6043133;23;20391;-84
2023/01/22 00:43:37;;;;;;;38.93;22.13;;;;;;;42.09;36.85;100921.66;6067193;23;20451;-84
2023/01/22 00:46:40;;;;;;;36.33;22.33;;;;;;;42.08;36.75;100906.44;6066824;23;20391;-86
2023/01/22 00:49:06;;;;;;;35.27;19.83;;;;;;;42.03;36.79;100905.84;6067935;23;20408;-86
2023/01/22 00:51:35;;;;;;;37.67;21.63;;;;;;;41.97;36.59;100899.00;6009050;23;20879;-84
2023/01/22 00:54:18;;;;;;;27.57;21.63;;;;;;;42.13;36.38;100905.44;6009223;23;20416;-85
2023/01/22 00:56:45;;;;;;;33.43;20.63;;;;;;;42.02;36.55;100906.97;5986191;23;20942;-87
2023/01/22 00:59:15;;;;;;;42.20;24.40;;;;;;;41.96;36.47;100894.69;5986108;23;20413;-87
2023/01/22 01:01:43;;;;;;;34.63;22.53;;;;;;;42.16;36.56;100891.16;6009892;23;20441;-85
2023/01/22 01:04:12;;;;;;;43.63;20.63;;;;;;;42.07;36.33;100887.69;6009043;23;20394;-88
2023/01/22 01:06:40;;;;;;;31.70;22.50;;;;;;;42.03;36.64;100884.03;6009816;23;20418;-85
2023/01/22 01:09:06;;;;;;;33.13;22.27;;;;;;;42.10;36.51;100896.00;5999368;23;20488;-85
2023/01/22 01:11:38;;;;;;;29.70;19.73;;;;;;;42.07;36.86;100882.25;6009365;23;20512;-85
2023/01/22 01:14:07;;;;;;;28.83;22.07;;;;;;;42.13;36.50;100872.72;6009830;23;20398;-85
2023/01/22 01:16:34;;;;;;;40.93;22.33;;;;;;;42.15;36.68;100873.19;6008786;23;20772;-81
2023/01/22 01:19:06;;;;;;;41.83;21.87;;;;;;;42.10;36.95;100876.13;5985052;23;20471;-81
2023/01/22 01:21:32;;;;;;;29.13;20.00;;;;;;;42.11;36.66;100869.53;6014273;23;20382;-84
2023/01/22 01:24:00;;;;;;;43.43;22.97;;;;;;;41.98;36.97;100857.78;6067485;23;20459;-86
2023/01/22 01:26:26;;;;;;;38.67;22.00;;;;;;;41.94;36.78;100861.53;6066496;23;20403;-84
2023/01/22 01:28:53;;;;;;;28.73;18.50;;;;;;;41.84;36.67;100865.44;6066602;23;20388;-84
2023/01/22 01:31:21;;;;;;;33.53;21.23;;;;;;;41.95;36.44;100874.81;6066377;23;20467;-84
2023/01/22 01:33:47;;;;;;;30.20;19.87;;;;;;;42.07;36.38;100868.63;6042523;23;20471;-84
2023/01/22 01:36:16;;;;;;;25.97;19.00;;;;;;;42.14;36.54;100874.31;6042001;23;20928;-83
2023/01/22 01:38:43;;;;;;;31.47;21.23;;;;;;;42.05;36.39;100868.97;6065695;23;20391;-82
2023/01/22 01:41:12;;;;;;;33.30;23.50;;;;;;;42.11;36.46;100874.97;6042626;23;20736;-82
2023/01/22 01:43:38;;;;;;;27.43;23.10;;;;;;;42.05;35.93;100873.59;6068140;23;20371;-84
2023/01/22 01:46:11;;;;;;;32.20;20.40;;;;;;;42.14;36.30;100875.13;6066421;23;20383;-84
2023/01/22 01:48:46;;;;;;;26.13;21.57;;;;;;;42.08;36.23;100872.94;6066063;23;20391;-82
2023/01/22 01:51:32;;;;;;;41.90;21.33;;;;;;;42.03;36.17;100873.94;6042578;23;20454;-82
2023/01/22 01:54:01;;;;;;;36.67;21.03;;;;;;;42.14;35.91;100868.88;6042259;23;20761;-82
2023/01/22 01:56:32;;;;;;;22.70;18.70;;;;;;;42.09;35.70;100867.16;6042325;23;20391;-83
2023/01/22 01:59:04;;;;;;;28.13;21.27;;;;;;;42.12;35.55;100861.03;6065993;23;20411;-82
2023/01/22 02:01:32;;;;;;;36.50;20.67;;;;;;;42.20;35.77;100853.94;6042404;23;20912;-83
2023/01/22 02:03:59;;;;;;;33.00;21.90;;;;;;;42.07;35.60;100849.53;6066184;23;20395;-83
2023/01/22 02:06:25;;;;;;;37.17;17.97;;;;;;;42.09;35.67;100856.25;6065529;23;20388;-82
2023/01/22 02:08:53;;;;;;;32.13;21.43;;;;;;;41.84;36.21;100860.81;6042668;23;20928;-84
2023/01/22 02:11:21;;;;;;;26.00;17.37;;;;;;;41.97;36.22;100853.47;6042237;23;20771;-84
2023/01/22 02:14:19;;;;;;;28.37;19.40;;;;;;;42.02;36.03;100853.28;6066103;23;20730;-84
2023/01/22 02:16:45;;;;;;;45.17;25.53;;;;;;;42.02;36.00;100852.47;6041992;23;20384;-82
2023/01/22 02:19:11;;;;;;;30.03;20.70;;;;;;;42.07;35.59;100842.16;6042195;23;20387;-82
2023/01/22 02:21:40;;;;;;;29.47;21.60;;;;;;;42.12;35.80;100835.72;6041830;23;20412;-82
2023/01/22 02:24:09;;;;;;;30.17;20.43;;;;;;;42.02;35.88;100834.19;6066078;23;20412;-82
2023/01/22 02:26:36;;;;;;;47.97;21.97;;;;;;;42.06;36.13;100831.59;6066078;23;20424;-82
2023/01/22 02:29:03;;;;;;;29.80;19.77;;;;;;;42.11;36.31;100825.91;6065924;23;20391;-82
2023/01/22 02:31:29;;;;;;;27.80;20.40;;;;;;;42.10;36.15;100829.78;6041964;23;20462;-83
2023/01/22 02:33:55;;;;;;;27.47;20.03;;;;;;;42.16;36.04;100827.66;6042126;23;20392;-83
2023/01/22 02:36:21;;;;;;;26.10;19.07;;;;;;;42.02;36.16;100836.13;6042147;23;20387;-82
2023/01/22 02:38:47;;;;;;;28.57;19.63;;;;;;;42.10;36.06;100832.50;6041348;23;20402;-82
2023/01/22 02:41:14;;;;;;;33.30;19.60;;;;;;;42.15;36.08;100835.03;6042098;23;20459;-83
2023/01/22 02:43:39;;;;;;;29.23;19.90;;;;;;;42.17;35.92;100829.25;6065631;23;20892;-82
2023/01/22 02:46:06;;;;;;;43.83;21.80;;;;;;;42.12;35.82;100833.78;6041904;23;20384;-84
2023/01/22 02:48:32;;;;;;;29.60;20.77;;;;;;;42.03;35.91;100833.06;6066942;23;20376;-82
2023/01/22 02:50:58;;;;;;;31.37;20.57;;;;;;;42.01;35.51;100834.53;6041718;23;20434;-84
2023/01/22 02:53:24;;;;;;;27.43;18.83;;;;;;;42.05;35.81;100832.72;6042013;23;20383;-82
2023/01/22 02:55:49;;;;;;;33.77;21.17;;;;;;;42.12;35.77;100827.53;6041186;23;20384;-82
2023/01/22 02:58:16;;;;;;;26.23;21.87;;;;;;;42.04;35.99;100831.91;6065689;23;20439;-84
2023/01/22 03:00:42;;;;;;;35.97;20.93;;;;;;;42.11;35.88;100829.47;6041378;23;20391;-82
2023/01/22 03:03:14;;;;;;;44.77;22.60;;;;;;;42.08;36.32;100826.59;6040798;23;20865;-82
2023/01/22 03:05:49;;;;;;;34.10;21.83;;;;;;;42.13;35.78;100834.56;6041892;23;20809;-82
2023/01/22 03:08:17;;;;;;;33.60;22.50;;;;;;;42.09;36.13;100826.25;6041770;23;20411;-84
2023/01/22 03:10:44;;;;;;;28.67;19.97;;;;;;;42.04;36.50;100834.66;6065564;23;20510;-82
2023/01/22 03:21:23;;;;;;;29.33;19.50;;;;;;;41.81;36.27;100825.28;6066959;23;20702;-84
2023/01/22 03:23:52;;;;;;;33.10;21.40;;;;;;;41.92;36.54;100814.72;6042227;23;20904;-81
2023/01/22 03:26:20;;;;;;;29.87;20.50;;;;;;;41.91;36.49;100816.66;6064781;23;20384;-84
2023/01/22 03:28:47;;;;;;;31.73;19.63;;;;;;;42.02;36.39;100822.50;6065631;23;20419;-82
2023/01/22 03:31:14;;;;;;;27.87;20.13;;;;;;;42.07;36.48;100817.63;6064620;23;20557;-82
2023/01/22 03:33:41;;;;;;;31.23;22.50;;;;;;;42.06;36.25;100807.88;6065395;23;20402;-85
2023/01/22 03:36:09;;;;;;;31.80;19.40;;;;;;;42.00;36.37;100811.94;6065645;23;20395;-82
2023/01/22 03:38:36;;;;;;;42.93;21.07;;;;;;;42.03;36.53;100803.09;6065296;23;20791;-83
2023/01/22 03:41:09;;;;;;;32.80;22.10;;;;;;;42.02;36.29;100806.94;6041326;23;20435;-82
2023/01/22 03:43:35;;;;;;;33.67;21.50;;;;;;;41.98;36.24;100810.66;6066299;23;20388;-84
2023/01/22 03:46:09;;;;;;;31.37;22.47;;;;;;;41.90;36.33;100809.63;6066101;23;20448;-90
2023/01/22 03:48:35;;;;;;;32.07;20.60;;;;;;;41.82;36.38;100805.84;6066692;23;20391;-86
2023/01/22 03:51:15;;;;;;;25.60;19.30;;;;;;;41.85;36.38;100807.09;6068412;23;20429;-86
2023/01/22 03:53:43;;;;;;;30.27;20.73;;;;;;;42.00;36.10;100820.13;6067456;23;20384;-84
2023/01/22 03:56:15;;;;;;;42.00;20.37;;;;;;;41.83;35.92;100829.25;6067352;23;20391;-82
2023/01/22 03:58:41;;;;;;;30.73;19.60;;;;;;;41.79;36.02;100825.59;6043081;23;20438;-82
2023/01/22 04:01:12;;;;;;;36.63;21.37;;;;;;;41.54;36.38;100821.13;6066737;23;20388;-84
2023/01/22 04:03:38;;;;;;;28.13;19.73;;;;;;;41.63;36.26;100827.31;6066533;23;20396;-82
2023/01/22 04:06:05;;;;;;;35.77;19.73;;;;;;;41.75;36.36;100819.22;6067247;23;20394;-82
2023/01/22 04:08:33;;;;;;;35.63;20.07;;;;;;;41.78;36.28;100812.31;6067138;23;20454;-82
2023/01/22 04:11:00;;;;;;;32.67;19.17;;;;;;;41.64;36.31;100811.75;6043277;23;20966;-82
2023/01/22 04:13:28;;;;;;;31.93;21.13;;;;;;;41.59;36.46;100816.28;6068771;23;20419;-83
2023/01/22 04:15:54;;;;;;;38.40;20.90;;;;;;;41.71;36.16;100821.00;6043324;23;20426;-83
2023/01/22 04:18:20;;;;;;;30.87;19.20;;;;;;;41.86;35.64;100814.16;6066984;23;20436;-85
2023/01/22 04:20:51;;;;;;;31.70;20.10;;;;;;;41.91;36.09;100815.88;6067175;23;20780;-82
2023/01/22 04:23:18;;;;;;;26.07;20.00;;;;;;;41.88;35.36;100808.38;6067235;23;20383;-82
2023/01/22 04:25:45;;;;;;;27.20;18.27;;;;;;;41.82;35.67;100815.97;6067157;23;20379;-82
2023/01/22 04:28:11;;;;;;;39.27;20.80;;;;;;;41.86;35.45;100816.88;6067231;23;20380;-82
2023/01/22 04:30:38;;;;;;;34.93;21.40;;;;;;;41.97;35.37;100809.88;6068377;23;20374;-83
2023/01/22 04:33:04;;;;;;;30.20;22.67;;;;;;;41.89;35.89;100813.50;6043257;23;20383;-82
2023/01/22 04:35:31;;;;;;;33.47;19.00;;;;;;;41.82;36.10;100815.97;6043016;23;20849;-83
2023/01/22 04:37:58;;;;;;;34.63;19.27;;;;;;;41.72;36.31;100821.78;6043207;23;20391;-82
2023/01/22 04:40:24;;;;;;;38.60;23.77;;;;;;;41.85;36.21;100821.53;6043048;23;20443;-85
2023/01/22 04:42:50;;;;;;;28.13;19.37;;;;;;;41.72;36.58;100822.56;6065939;23;20414;-82
2023/01/22 04:45:16;;;;;;;35.30;20.40;;;;;;;41.65;36.32;100822.31;6043196;23;20384;-82
2023/01/22 04:47:45;;;;;;;28.80;20.83;;;;;;;41.50;36.07;100826.44;6042402;23;20388;-82
2023/01/22 04:50:19;;;;;;;29.40;20.00;;;;;;;41.70;35.64;100827.56;6067011;23;20383;-83
2023/01/22 04:52:45;;;;;;;33.43;22.40;;;;;;;41.75;35.81;100835.56;6042761;23;20423;-82
2023/01/22 04:55:12;;;;;;;28.17;21.83;;;;;;;41.67;36.10;100828.22;6066863;23;20420;-82
2023/01/22 04:57:38;;;;;;;33.03;21.93;;;;;;;41.75;36.09;100829.34;6066707;23;20399;-82
2023/01/22 05:00:58;;;;;;;27.03;21.80;;;;;;;41.52;36.61;100829.63;6043413;23;20388;-85
2023/01/22 05:03:24;;;;;;;31.13;21.47;;;;;;;41.66;36.32;100834.81;6043716;23;20392;-87
2023/01/22 05:05:50;;;;;;;33.77;21.30;;;;;;;41.70;35.95;100827.56;6067359;23;20399;-86
2023/01/22 05:08:16;;;;;;;33.53;21.93;;;;;;;41.43;36.38;100828.09;6043838;23;20415;-85
2023/01/22 05:10:42;;;;;;;45.50;22.70;;;;;;;41.39;36.51;100827.19;6067414;23;20411;-86
2023/01/22 05:13:08;;;;;;;33.10;21.30;;;;;;;41.55;36.29;100820.00;6067768;23;20388;-85
2023/01/22 05:15:34;;;;;;;31.77;20.97;;;;;;;41.60;36.37;100820.59;6043368;23;20419;-85
2023/01/22 05:18:00;;;;;;;36.37;21.87;;;;;;;41.57;36.13;100825.91;6067545;23;20435;-85
2023/01/22 05:20:26;;;;;;;30.50;23.60;;;;;;;41.66;36.55;100831.28;6067322;23;20388;-86
2023/01/22 05:22:52;;;;;;;24.50;21.33;;;;;;;41.57;36.41;100825.91;6067627;23;20423;-86
2023/01/22 05:25:18;;;;;;;33.17;22.27;;;;;;;41.48;36.53;100834.13;6043586;23;20388;-86
2023/01/22 05:27:44;;;;;;;34.03;23.30;;;;;;;41.54;36.38;100824.66;6067000;23;20447;-85
2023/01/22 05:30:11;;;;;;;31.80;21.53;;;;;;;41.65;36.09;100821.53;6042498;23;20408;-82
2023/01/22 05:32:37;;;;;;;43.90;23.87;;;;;;;41.77;35.75;100833.31;6042508;23;20442;-85
2023/01/22 05:35:05;;;;;;;28.20;18.87;;;;;;;41.69;36.04;100825.97;6066608;23;20416;-84
2023/01/22 05:37:31;;;;;;;40.50;23.30;;;;;;;41.72;35.88;100830.75;6042587;23;20420;-82
2023/01/22 05:39:57;;;;;;;33.17;20.17;;;;;;;41.58;36.47;100832.97;6068359;23;20405;-88
2023/01/22 05:42:23;;;;;;;35.87;20.77;;;;;;;41.75;35.82;100824.69;6042800;23;20456;-91
2023/01/22 05:44:49;;;;;;;32.63;23.40;;;;;;;41.73;36.25;100826.88;6043160;23;20737;-82
2023/01/22 05:47:15;;;;;;;36.77;22.40;;;;;;;41.77;36.18;100837.97;6066363;23;20395;-82
2023/01/22 05:49:42;;;;;;;36.23;18.97;;;;;;;41.80;36.24;100835.34;6066183;23;20766;-82
2023/01/22 05:52:10;;;;;;;29.00;21.77;;;;;;;41.84;36.46;100836.28;6041925;23;20458;-82
2023/01/22 05:54:38;;;;;;;29.07;19.00;;;;;;;41.81;36.29;100828.00;6042322;23;20391;-82
2023/01/22 05:57:13;;;;;;;34.07;24.20;;;;;;;41.64;36.67;100823.47;6042260;23;20392;-82
2023/01/22 05:59:39;;;;;;;42.10;20.63;;;;;;;41.74;36.69;100833.13;6065741;23;20427;-85
2023/01/22 06:02:05;;;;;;;36.23;26.33;;;;;;;41.81;36.39;100836.97;6037401;23;20444;-82
2023/01/22 06:04:31;;;;;;;40.07;25.00;;;;;;;41.77;36.57;100832.50;6064440;23;20475;-82
2023/01/22 06:06:57;;;;;;;32.20;22.07;;;;;;;41.80;36.25;100842.72;6041913;23;20420;-82
2023/01/22 06:09:23;;;;;;;28.33;20.87;;;;;;;41.54;36.62;100837.47;6041744;23;20391;-83
2023/01/22 06:11:49;;;;;;;34.30;22.47;;;;;;;41.60;36.68;100839.66;6066053;23;20516;-81
2023/01/22 06:14:15;;;;;;;36.33;24.30;;;;;;;41.66;37.16;100842.97;6041626;23;20442;-83
2023/01/22 06:16:41;;;;;;;32.27;22.13;;;;;;;41.56;36.69;100838.75;6041400;23;20863;-85
2023/01/22 06:19:08;;;;;;;33.80;22.60;;;;;;;41.60;36.79;100844.31;6066291;23;20392;-86
2023/01/22 06:21:34;;;;;;;28.33;24.30;;;;;;;41.51;36.72;100849.81;6065823;23;20418;-91
2023/01/22 06:24:00;;;;;;;41.83;23.43;;;;;;;41.48;37.13;100847.75;6042548;23;20420;-84
2023/01/22 06:26:26;;;;;;;29.93;24.10;;;;;;;41.51;36.90;100859.91;6066431;23;20446;-88
2023/01/22 06:28:53;;;;;;;39.73;23.20;;;;;;;41.54;36.73;100853.81;6042258;23;20411;-81
2023/01/22 06:31:19;;;;;;;46.23;26.13;;;;;;;41.32;37.45;100847.56;6067474;23;20412;-82
2023/01/22 06:33:45;;;;;;;34.83;23.70;;;;;;;41.61;36.80;100848.63;6067551;23;20378;-81
2023/01/22 06:36:11;;;;;;;36.90;22.70;;;;;;;41.69;36.74;100846.97;6041311;23;20399;-83
2023/01/22 06:38:40;;;;;;;41.13;25.77;;;;;;;41.64;36.78;100861.59;6066524;23;20860;-85
2023/01/22 06:41:06;;;;;;;31.40;22.27;;;;;;;41.35;37.22;100856.97;6019133;23;20388;-85
2023/01/22 06:43:41;;;;;;;29.97;22.20;;;;;;;41.65;36.62;100868.63;6067145;23;20384;-90
2023/01/22 06:46:39;;;;;;;37.40;22.87;;;;;;;41.67;36.73;100879.97;6068217;23;20376;-91
2023/01/22 06:49:06;;;;;;;49.20;25.67;;;;;;;41.52;37.06;100880.56;6062495;23;20412;-91
2023/01/22 06:51:34;;;;;;;31.00;21.50;;;;;;;41.65;36.74;100893.13;6064583;23;20434;-91
2023/01/22 06:54:21;;;;;;;47.17;23.53;;;;;;;41.59;36.59;100903.41;6067610;23;20555;-90
2023/01/22 06:56:57;;;;;;;34.00;20.87;;;;;;;41.55;36.31;100880.69;6067043;23;20408;-91
2023/01/22 06:59:28;;;;;;;51.70;34.53;;;;;;;41.76;36.76;100897.09;6067306;23;20471;-91
2023/01/22 07:01:54;;;;;;;48.77;35.23;;;;;;;41.97;35.95;100904.44;6041285;23;20380;-82
2023/01/22 07:04:26;;;;;;;55.30;35.30;;;;;;;41.90;36.47;100902.25;6066444;23;20443;-86
2023/01/22 07:06:52;;;;;;;52.70;35.83;;;;;;;41.89;35.99;100908.06;6041835;23;20394;-82
2023/01/22 07:09:18;;;;;;;58.93;40.50;;;;;;;41.86;36.54;100915.75;6065774;23;20471;-80
2023/01/22 07:11:44;;;;;;;52.33;40.13;;;;;;;41.77;36.64;100919.69;6041449;23;20503;-82
2023/01/22 07:14:10;;;;;;;68.37;39.10;;;;;;;41.70;36.76;100930.28;6041648;23;20396;-82
2023/01/22 07:16:36;;;;;;;55.10;40.50;;;;;;;41.70;36.15;100925.63;6041825;23;20554;-81
2023/01/22 07:19:04;;;;;;;60.17;36.43;;;;;;;41.73;36.58;100938.56;6065959;23;20876;-87
2023/01/22 07:21:30;;;;;;;68.23;42.33;;;;;;;41.78;36.42;100934.88;6037622;23;20395;-84
2023/01/22 07:23:59;;;;;;;58.30;36.67;;;;;;;41.78;36.54;100946.59;6062126;23;20388;-85
2023/01/22 07:26:25;;;;;;;56.37;37.53;;;;;;;41.80;36.38;100952.50;6037456;23;20710;-84
2023/01/22 07:28:51;;;;;;;65.77;39.10;;;;;;;41.78;36.39;100938.41;6039302;23;20423;-84
2023/01/22 07:31:17;;;;;;;57.33;38.97;;;;;;;41.78;36.40;100940.34;6062278;23;20464;-84
2023/01/22 07:33:43;;;;;;;54.83;38.17;;;;;;;41.73;36.44;100954.91;6068199;23;20469;-85
2023/01/22 07:36:09;;;;;;;50.27;37.60;;;;;;;41.70;36.56;100968.41;6068431;23;20780;-86
2023/01/22 07:38:35;;;;;;;55.60;38.10;;;;;;;41.74;36.87;100974.78;6068408;23;20399;-88
2023/01/22 07:41:06;;;;;;;49.17;40.13;;;;;;;41.79;36.40;100982.78;6071245;23;20382;-91
2023/01/22 07:43:32;;;;;;;56.63;41.20;;;;;;;41.78;36.34;100987.44;6069879;23;20466;-89
2023/01/22 07:46:02;;;;;;;47.73;34.53;;;;;;;41.79;36.39;100991.75;6071417;23;20391;-91
2023/01/22 07:48:29;;;;;;;44.57;33.40;;;;;;;41.72;36.60;100983.28;6070003;23;20390;-85
2023/01/22 07:50:59;;;;;;;80.33;50.60;;;;;;;41.80;36.61;100992.56;6070530;23;20386;-84
2023/01/22 07:53:25;;;;;;;729.80;430.90;;;;;;;41.80;36.57;100987.91;6070398;23;20848;-83
2023/01/22 07:55:51;;;;;;;243.50;193.93;;;;;;;41.89;36.74;100990.59;6070210;23;20387;-85
2023/01/22 07:58:17;;;;;;;120.70;89.27;;;;;;;41.95;36.14;100988.47;6081260;23;20899;-84
2023/01/22 08:00:46;;;;;;;467.23;358.77;;;;;;;41.95;36.46;100988.47;6069523;23;20391;-83
2023/01/22 08:03:13;;;;;;;119.17;83.93;;;;;;;41.91;36.48;101003.88;6069916;23;20784;-82
2023/01/22 08:05:42;;;;;;;184.90;132.50;;;;;;;41.96;36.69;101007.19;6096007;23;20871;-86
2023/01/22 08:08:14;;;;;;;88.47;52.37;;;;;;;42.05;36.37;101018.03;6069850;23;20395;-83
2023/01/22 08:10:43;;;;;;;57.07;35.90;;;;;;;42.08;36.13;101011.94;6070041;23;20418;-84
2023/01/22 08:13:09;;;;;;;38.53;32.60;;;;;;;42.03;36.13;101009.41;6070022;23;20386;-84
2023/01/22 08:15:35;;;;;;;203.43;139.33;;;;;;;42.10;36.44;101010.47;6070270;23;20453;-84
2023/01/22 08:18:03;;;;;;;80.73;56.43;;;;;;;42.12;36.35;101016.41;6070150;23;20387;-85
2023/01/22 08:21:04;;;;;;;;;;;;;;;;;;;;;
2023/01/22 08:34:01;;;;;;;;;;;;;;;;;;;;;
2023/01/22 08:37:13;;;;;;;;;;;;;;;;;;;;;
2023/01/22 08:44:11;;;;;;;;;;;;;;;;;;;;;
2023/01/22 08:47:39;;;;;;;;;;;;;;;;;;;;;
2023/01/22 08:50:18;;;;;;;49.60;29.87;;;;;;;42.27;35.75;101028.66;6091710;23;20375;-86
2023/01/22 08:52:47;;;;;;;50.17;32.83;;;;;;;42.24;36.04;101034.78;6070684;23;20533;-86
2023/01/22 08:55:23;;;;;;;;;;;;;;;;;;;;;
2023/01/22 08:58:17;;;;;;;58.50;35.47;;;;;;;42.25;36.06;101041.81;6095031;23;20563;-86
2023/01/22 09:00:54;;;;;;;58.47;36.30;;;;;;;42.30;35.52;101038.91;6067225;23;20458;-86
2023/01/22 09:03:26;;;;;;;43.00;27.83;;;;;;;42.31;35.54;101050.59;6070082;23;20387;-87
2023/01/22 09:05:55;;;;;;;89.73;56.03;;;;;;;42.31;35.79;101040.50;6070360;23;20848;-86
2023/01/22 09:08:31;;;;;;;;;;;;;;;;;;;;;
2023/01/22 09:11:19;;;;;;;64.07;38.17;;;;;;;42.27;35.40;101020.47;6097137;23;20477;-87
2023/01/22 09:14:06;;;;;;;98.13;62.57;;;;;;;42.33;35.83;101021.88;6071195;23;20464;-85
2023/01/22 09:16:32;;;;;;;55.27;29.43;;;;;;;42.34;35.12;101028.13;6071318;23;20410;-87
2023/01/22 09:18:58;;;;;;;37.47;31.10;;;;;;;42.34;35.43;101030.84;6071619;23;20393;-85
2023/01/22 09:21:24;;;;;;;52.87;30.10;;;;;;;42.28;35.75;101030.25;6070579;23;20493;-84
2023/01/22 09:23:50;;;;;;;42.10;30.03;;;;;;;42.29;35.30;101025.59;6071104;23;20393;-83
2023/01/22 09:26:16;;;;;;;42.10;26.17;;;;;;;42.03;35.91;101023.81;6070613;23;20394;-84
2023/01/22 09:28:42;;;;;;;43.87;29.93;;;;;;;42.24;35.26;101028.53;6070785;23;20407;-84
2023/01/22 09:31:33;;;;;;;35.90;25.53;;;;;;;42.26;35.45;101029.78;6070700;23;20476;-91
2023/01/22 09:34:00;;;;;;;34.70;24.13;;;;;;;42.43;35.06;101025.34;6072292;23;20391;-90
2023/01/22 09:36:40;;;;;;;;;;;;;;;;;;;;;
2023/01/22 09:39:09;;;;;;;34.70;22.83;;;;;;;42.48;34.42;101014.19;6071293;23;20792;-83
2023/01/22 09:42:06;;;;;;;32.47;23.63;;;;;;;42.41;34.79;101003.84;6069756;23;20387;-83
2023/01/22 09:44:43;;;;;;;34.23;23.20;;;;;;;42.57;34.69;101012.19;6066096;23;20415;-84
2023/01/22 09:47:23;;;;;;;35.03;25.67;;;;;;;42.61;34.16;101010.44;6070207;23;20391;-83
2023/01/22 09:49:57;;;;;;;35.07;21.27;;;;;;;42.81;33.62;101012.31;6071218;23;20401;-84
2023/01/22 09:52:27;;;;;;;26.93;20.43;;;;;;;42.70;33.74;101022.06;6070004;23;20455;-84
2023/01/22 09:54:53;;;;;;;36.97;19.37;;;;;;;42.61;33.99;101010.44;6071148;23;20856;-87
2023/01/22 09:57:20;;;;;;;27.13;21.30;;;;;;;42.56;34.34;101016.88;6069901;23;20403;-82
2023/01/22 09:59:50;;;;;;;35.80;22.73;;;;;;;42.74;33.90;101012.06;6070047;23;20894;-84
2023/01/22 10:02:37;;;;;;;28.80;21.00;;;;;;;42.71;34.02;101015.44;6070177;23;20395;-83
2023/01/22 10:05:27;;;;;;;27.50;21.40;;;;;;;42.60;34.45;101011.53;6070703;23;20410;-83
2023/01/22 10:08:17;;;;;;;29.07;19.97;;;;;;;42.68;34.33;101012.63;6070806;23;20379;-84
2023/01/22 10:10:43;;;;;;;34.50;26.20;;;;;;;42.78;34.57;101007.50;6070588;23;20470;-83
2023/01/22 10:13:22;;;;;;;33.77;22.90;;;;;;;42.73;34.37;101015.94;6070095;23;20422;-83
2023/01/22 10:15:52;;;;;;;34.40;22.20;;;;;;;42.81;34.40;101001.41;6071193;23;20414;-85
2023/01/22 10:18:46;;;;;;;30.97;19.83;;;;;;;42.80;34.18;100996.28;6071812;23;20521;-83
2023/01/22 10:21:36;;;;;;;37.80;22.00;;;;;;;42.84;34.23;100991.72;6096457;23;20352;-88
2023/01/22 10:24:13;;;;;;;30.00;22.37;;;;;;;42.85;34.17;100983.22;6101126;23;20386;-87
2023/01/22 10:26:51;;;;;;;31.87;23.27;;;;;;;42.79;33.62;100976.41;6070915;23;20769;-84
2023/01/22 10:29:35;;;;;;;37.53;21.57;;;;;;;42.84;33.75;100980.81;6070127;23;20375;-84
2023/01/22 10:32:24;;;;;;;37.10;25.63;;;;;;;42.74;34.43;100973.88;6094347;23;20493;-86
2023/01/22 10:35:05;;;;;;;35.07;19.87;;;;;;;42.82;34.00;100972.19;6070364;23;20439;-84
2023/01/22 10:37:49;;;;;;;38.90;20.07;;;;;;;42.82;34.37;100970.25;6070423;23;20416;-85
2023/01/22 10:40:29;;;;;;;33.93;24.40;;;;;;;42.98;33.58;100978.63;6074269;23;20375;-84
2023/01/22 10:43:18;;;;;;;38.10;24.87;;;;;;;42.81;34.27;100965.13;6075119;23;20458;-90
2023/01/22 10:46:08;;;;;;;48.83;25.00;;;;;;;42.81;34.13;100952.28;6089604;23;20808;-88
2023/01/22 10:48:34;;;;;;;41.73;20.77;;;;;;;42.92;34.02;100964.38;6069899;23;20947;-85
2023/01/22 10:51:09;;;;;;;26.73;20.80;;;;;;;42.81;34.23;100963.19;6096109;23;20379;-84
2023/01/22 10:53:37;;;;;;;32.67;23.80;;;;;;;42.87;34.29;100955.59;6070307;23;20378;-83
2023/01/22 10:56:06;;;;;;;33.67;22.00;;;;;;;42.85;33.82;100953.22;6069235;23;20780;-86
2023/01/22 10:58:36;;;;;;;28.83;20.00;;;;;;;42.89;33.77;100965.03;6069719;23;20418;-89
2023/01/22 11:01:28;;;;;;;33.77;18.97;;;;;;;42.94;33.85;100955.81;6072512;23;20462;-88
2023/01/22 11:03:55;;;;;;;28.37;19.97;;;;;;;42.84;33.99;100953.53;6072403;23;20714;-88
2023/01/22 11:06:38;;;;;;;32.90;20.07;;;;;;;42.87;34.25;100950.94;6071947;23;21089;-89
2023/01/22 11:09:42;;;;;;;39.63;23.33;;;;;;;42.84;33.88;100939.88;6102132;23;20390;-87
2023/01/22 11:12:30;;;;;;;26.83;20.07;;;;;;;42.81;33.83;100946.84;6069348;23;20458;-84
2023/01/22 11:15:12;;;;;;;31.70;22.07;;;;;;;42.88;33.94;100952.53;6070125;23;20422;-86
2023/01/22 11:17:43;;;;;;;27.17;18.00;;;;;;;43.02;33.82;100960.41;6069725;23;20391;-87
2023/01/22 11:20:37;;;;;;;23.10;19.23;;;;;;;42.90;34.07;100957.63;6070118;23;20386;-86
2023/01/22 11:23:09;;;;;;;33.50;20.27;;;;;;;42.99;33.98;100957.56;6062084;23;20851;-86
2023/01/22 11:25:49;;;;;;;30.90;19.13;;;;;;;42.96;34.54;100955.47;6070095;23;20732;-86
2023/01/22 11:28:23;;;;;;;33.80;22.07;;;;;;;43.02;34.20;100944.03;6069877;23;20405;-81
2023/01/22 11:31:06;;;;;;;29.20;21.40;;;;;;;43.03;34.15;100937.47;6069744;23;20923;-85
2023/01/22 11:33:48;;;;;;;26.73;20.80;;;;;;;43.11;33.62;100930.28;6069854;23;20399;-86
2023/01/22 11:37:02;;;;;;;37.93;20.90;;;;;;;43.10;33.80;100923.25;6070009;23;20414;-88
2023/01/22 11:39:34;;;;;;;32.40;21.03;;;;;;;43.18;33.96;100919.59;6029108;23;20474;-86
2023/01/22 11:42:10;;;;;;;23.67;20.17;;;;;;;43.17;34.19;100918.81;6070768;23;20446;-90
2023/01/22 11:44:46;;;;;;;26.90;16.83;;;;;;;43.18;33.92;100909.47;6070383;23;20398;-87
2023/01/22 11:47:31;;;;;;;38.70;18.97;;;;;;;43.21;34.13;100907.97;6069358;23;20382;-84
2023/01/22 11:50:02;;;;;;;31.00;20.80;;;;;;;43.31;33.77;100904.78;6066460;23;20399;-84
2023/01/22 11:52:46;;;;;;;26.87;20.30;;;;;;;43.32;34.12;100900.13;6068642;23;20423;-85
2023/01/22 11:55:15;;;;;;;40.57;23.10;;;;;;;43.32;34.01;100887.28;6069288;23;20431;-86
2023/01/22 11:57:47;;;;;;;27.80;19.33;;;;;;;43.14;33.96;100881.25;6070353;23;20413;-87
2023/01/22 12:00:27;;;;;;;41.43;22.63;;;;;;;43.12;34.27;100880.00;6094017;23;20393;-82
2023/01/22 12:03:20;;;;;;;41.53;18.73;;;;;;;43.10;34.04;100876.84;6096116;23;21002;-85